sensor_id;sensor_type;location;lat;lon;timestamp;P1;durP1;ratioP1;P2;durP2;ratioP2
28188;SDS011;15471;51.166;4.470;2022-12-13T00:00:48;0.65;;;0.65;;
28188;SDS011;15471;51.166;4.470;2022-12-13T00:03:14;0.68;;;0.68;;
28188;SDS011;15471;51.166;4.470;2022-12-13T00:05:43;0.60;;;0.60;;
28188;SDS011;15471;51.166;4.470;2022-12-13T00:08:09;0.60;;;0.60;;
28188;SDS011;15471;51.166;4.470;2022-12-13T00:10:35;0.70;;;0.70;;
28188;SDS011;15471;51.166;4.470;2022-12-13T00:13:01;0.63;;;0.63;;
28188;SDS011;15471;51.166;4.470;2022-12-13T00:15:26;0.70;;;0.70;;
28188;SDS011;15471;51.166;4.470;2022-12-13T00:17:52;0.70;;;0.70;;
28188;SDS011;15471;51.166;4.470;2022-12-13T00:20:18;0.70;;;0.70;;
28188;SDS011;15471;51.166;4.470;2022-12-13T00:22:44;0.60;;;0.60;;
28188;SDS011;15471;51.166;4.470;2022-12-13T00:25:09;0.63;;;0.63;;
28188;SDS011;15471;51.166;4.470;2022-12-13T00:27:35;0.70;;;0.70;;
28188;SDS011;15471;51.166;4.470;2022-12-13T00:30:01;0.60;;;0.60;;
28188;SDS011;15471;51.166;4.470;2022-12-13T00:32:27;0.70;;;0.70;;
28188;SDS011;15471;51.166;4.470;2022-12-13T00:34:53;0.60;;;0.60;;
28188;SDS011;15471;51.166;4.470;2022-12-13T00:37:19;0.70;;;0.70;;
28188;SDS011;15471;51.166;4.470;2022-12-13T00:39:45;0.70;;;0.70;;
28188;SDS011;15471;51.166;4.470;2022-12-13T00:42:10;0.60;;;0.60;;
28188;SDS011;15471;51.166;4.470;2022-12-13T00:44:36;0.60;;;0.60;;
28188;SDS011;15471;51.166;4.470;2022-12-13T00:47:02;0.70;;;0.70;;
28188;SDS011;15471;51.166;4.470;2022-12-13T00:49:28;0.70;;;0.70;;
28188;SDS011;15471;51.166;4.470;2022-12-13T00:51:54;0.70;;;0.70;;
28188;SDS011;15471;51.166;4.470;2022-12-13T00:54:19;0.60;;;0.60;;
28188;SDS011;15471;51.166;4.470;2022-12-13T00:56:45;0.70;;;0.70;;
28188;SDS011;15471;51.166;4.470;2022-12-13T00:59:12;0.70;;;0.70;;
28188;SDS011;15471;51.166;4.470;2022-12-13T01:01:39;0.70;;;0.70;;
28188;SDS011;15471;51.166;4.470;2022-12-13T01:04:05;0.70;;;0.70;;
28188;SDS011;15471;51.166;4.470;2022-12-13T01:06:36;0.70;;;0.70;;
28188;SDS011;15471;51.166;4.470;2022-12-13T01:09:05;0.70;;;0.70;;
28188;SDS011;15471;51.166;4.470;2022-12-13T01:11:34;0.70;;;0.70;;
28188;SDS011;15471;51.166;4.470;2022-12-13T01:14:01;0.70;;;0.70;;
28188;SDS011;15471;51.166;4.470;2022-12-13T01:16:27;0.70;;;0.70;;
28188;SDS011;15471;51.166;4.470;2022-12-13T01:18:52;0.70;;;0.70;;
28188;SDS011;15471;51.166;4.470;2022-12-13T01:21:18;0.70;;;0.70;;
28188;SDS011;15471;51.166;4.470;2022-12-13T01:23:45;0.70;;;0.70;;
28188;SDS011;15471;51.166;4.470;2022-12-13T01:26:12;0.70;;;0.70;;
28188;SDS011;15471;51.166;4.470;2022-12-13T01:28:40;0.65;;;0.65;;
28188;SDS011;15471;51.166;4.470;2022-12-13T01:31:07;0.70;;;0.70;;
28188;SDS011;15471;51.166;4.470;2022-12-13T01:33:36;0.70;;;0.70;;
28188;SDS011;15471;51.166;4.470;2022-12-13T01:36:03;0.70;;;0.70;;
28188;SDS011;15471;51.166;4.470;2022-12-13T01:38:30;0.70;;;0.70;;
28188;SDS011;15471;51.166;4.470;2022-12-13T01:40:56;0.80;;;0.80;;
28188;SDS011;15471;51.166;4.470;2022-12-13T01:43:28;0.77;;;0.77;;
28188;SDS011;15471;51.166;4.470;2022-12-13T01:48:43;0.70;;;0.70;;
28188;SDS011;15471;51.166;4.470;2022-12-13T01:51:45;0.70;;;0.70;;
28188;SDS011;15471;51.166;4.470;2022-12-13T01:54:18;0.75;;;0.75;;
28188;SDS011;15471;51.166;4.470;2022-12-13T01:56:48;0.80;;;0.80;;
28188;SDS011;15471;51.166;4.470;2022-12-13T01:59:18;0.70;;;0.70;;
28188;SDS011;15471;51.166;4.470;2022-12-13T02:01:46;0.70;;;0.70;;
28188;SDS011;15471;51.166;4.470;2022-12-13T02:04:14;0.70;;;0.70;;
28188;SDS011;15471;51.166;4.470;2022-12-13T02:06:44;0.70;;;0.70;;
28188;SDS011;15471;51.166;4.470;2022-12-13T02:09:11;0.70;;;0.70;;
28188;SDS011;15471;51.166;4.470;2022-12-13T02:11:40;0.70;;;0.70;;
28188;SDS011;15471;51.166;4.470;2022-12-13T02:14:07;0.70;;;0.70;;
28188;SDS011;15471;51.166;4.470;2022-12-13T02:24:59;0.80;;;0.80;;
28188;SDS011;15471;51.166;4.470;2022-12-13T02:30:36;0.70;;;0.70;;
28188;SDS011;15471;51.166;4.470;2022-12-13T02:35:49;0.70;;;0.70;;
28188;SDS011;15471;51.166;4.470;2022-12-13T02:38:24;0.60;;;0.60;;
28188;SDS011;15471;51.166;4.470;2022-12-13T02:43:47;0.70;;;0.70;;
28188;SDS011;15471;51.166;4.470;2022-12-13T02:46:22;0.70;;;0.70;;
28188;SDS011;15471;51.166;4.470;2022-12-13T02:48:51;0.70;;;0.70;;
28188;SDS011;15471;51.166;4.470;2022-12-13T02:51:19;0.75;;;0.75;;
28188;SDS011;15471;51.166;4.470;2022-12-13T02:53:47;0.70;;;0.70;;
28188;SDS011;15471;51.166;4.470;2022-12-13T02:56:13;0.70;;;0.70;;
28188;SDS011;15471;51.166;4.470;2022-12-13T02:58:47;0.75;;;0.75;;
28188;SDS011;15471;51.166;4.470;2022-12-13T03:01:22;0.70;;;0.70;;
28188;SDS011;15471;51.166;4.470;2022-12-13T03:03:59;0.70;;;0.70;;
28188;SDS011;15471;51.166;4.470;2022-12-13T03:06:37;0.80;;;0.80;;
28188;SDS011;15471;51.166;4.470;2022-12-13T03:09:12;0.80;;;0.80;;
28188;SDS011;15471;51.166;4.470;2022-12-13T03:15:02;0.80;;;0.80;;
28188;SDS011;15471;51.166;4.470;2022-12-13T03:17:30;0.70;;;0.70;;
28188;SDS011;15471;51.166;4.470;2022-12-13T03:20:02;0.70;;;0.70;;
28188;SDS011;15471;51.166;4.470;2022-12-13T03:22:28;0.70;;;0.70;;
28188;SDS011;15471;51.166;4.470;2022-12-13T03:24:58;0.77;;;0.77;;
28188;SDS011;15471;51.166;4.470;2022-12-13T03:27:24;0.73;;;0.73;;
28188;SDS011;15471;51.166;4.470;2022-12-13T03:29:50;0.70;;;0.70;;
28188;SDS011;15471;51.166;4.470;2022-12-13T03:32:16;0.70;;;0.70;;
28188;SDS011;15471;51.166;4.470;2022-12-13T03:34:42;0.70;;;0.70;;
28188;SDS011;15471;51.166;4.470;2022-12-13T03:37:08;0.75;;;0.75;;
28188;SDS011;15471;51.166;4.470;2022-12-13T03:39:34;0.70;;;0.70;;
28188;SDS011;15471;51.166;4.470;2022-12-13T03:42:00;0.70;;;0.70;;
28188;SDS011;15471;51.166;4.470;2022-12-13T03:44:26;0.70;;;0.70;;
28188;SDS011;15471;51.166;4.470;2022-12-13T03:46:51;0.70;;;0.70;;
28188;SDS011;15471;51.166;4.470;2022-12-13T03:49:17;0.70;;;0.70;;
28188;SDS011;15471;51.166;4.470;2022-12-13T03:51:44;0.70;;;0.70;;
28188;SDS011;15471;51.166;4.470;2022-12-13T03:54:09;0.70;;;0.70;;
28188;SDS011;15471;51.166;4.470;2022-12-13T03:56:35;0.70;;;0.70;;
28188;SDS011;15471;51.166;4.470;2022-12-13T03:59:02;0.70;;;0.70;;
28188;SDS011;15471;51.166;4.470;2022-12-13T04:01:27;0.70;;;0.70;;
28188;SDS011;15471;51.166;4.470;2022-12-13T04:03:53;0.70;;;0.70;;
28188;SDS011;15471;51.166;4.470;2022-12-13T04:06:19;0.70;;;0.70;;
28188;SDS011;15471;51.166;4.470;2022-12-13T04:08:45;0.70;;;0.70;;
28188;SDS011;15471;51.166;4.470;2022-12-13T04:11:10;0.70;;;0.70;;
28188;SDS011;15471;51.166;4.470;2022-12-13T04:13:54;0.70;;;0.70;;
28188;SDS011;15471;51.166;4.470;2022-12-13T04:16:21;0.70;;;0.70;;
28188;SDS011;15471;51.166;4.470;2022-12-13T04:18:47;0.70;;;0.70;;
28188;SDS011;15471;51.166;4.470;2022-12-13T04:21:13;0.70;;;0.70;;
28188;SDS011;15471;51.166;4.470;2022-12-13T04:23:39;0.70;;;0.70;;
28188;SDS011;15471;51.166;4.470;2022-12-13T04:26:05;0.70;;;0.70;;
28188;SDS011;15471;51.166;4.470;2022-12-13T04:28:31;0.70;;;0.70;;
28188;SDS011;15471;51.166;4.470;2022-12-13T04:30:56;0.70;;;0.70;;
28188;SDS011;15471;51.166;4.470;2022-12-13T04:33:23;0.70;;;0.70;;
28188;SDS011;15471;51.166;4.470;2022-12-13T04:35:49;0.70;;;0.70;;
28188;SDS011;15471;51.166;4.470;2022-12-13T04:38:15;0.70;;;0.70;;
28188;SDS011;15471;51.166;4.470;2022-12-13T04:40:41;0.70;;;0.70;;
28188;SDS011;15471;51.166;4.470;2022-12-13T04:43:07;0.70;;;0.70;;
28188;SDS011;15471;51.166;4.470;2022-12-13T04:45:32;0.70;;;0.70;;
28188;SDS011;15471;51.166;4.470;2022-12-13T04:47:58;0.70;;;0.70;;
28188;SDS011;15471;51.166;4.470;2022-12-13T04:50:24;0.70;;;0.70;;
28188;SDS011;15471;51.166;4.470;2022-12-13T04:52:50;0.70;;;0.70;;
28188;SDS011;15471;51.166;4.470;2022-12-13T04:55:17;0.70;;;0.70;;
28188;SDS011;15471;51.166;4.470;2022-12-13T04:57:42;0.80;;;0.80;;
28188;SDS011;15471;51.166;4.470;2022-12-13T05:00:09;0.70;;;0.70;;
28188;SDS011;15471;51.166;4.470;2022-12-13T05:02:37;0.70;;;0.70;;
28188;SDS011;15471;51.166;4.470;2022-12-13T05:05:06;0.73;;;0.73;;
28188;SDS011;15471;51.166;4.470;2022-12-13T05:07:33;0.70;;;0.70;;
28188;SDS011;15471;51.166;4.470;2022-12-13T05:09:59;0.80;;;0.80;;
28188;SDS011;15471;51.166;4.470;2022-12-13T05:12:25;0.80;;;0.80;;
28188;SDS011;15471;51.166;4.470;2022-12-13T05:14:51;0.70;;;0.70;;
28188;SDS011;15471;51.166;4.470;2022-12-13T05:17:17;0.70;;;0.70;;
28188;SDS011;15471;51.166;4.470;2022-12-13T05:19:43;0.77;;;0.77;;
28188;SDS011;15471;51.166;4.470;2022-12-13T05:22:09;0.70;;;0.70;;
28188;SDS011;15471;51.166;4.470;2022-12-13T05:24:42;0.80;;;0.80;;
28188;SDS011;15471;51.166;4.470;2022-12-13T05:27:09;0.80;;;0.80;;
28188;SDS011;15471;51.166;4.470;2022-12-13T05:29:36;0.80;;;0.80;;
28188;SDS011;15471;51.166;4.470;2022-12-13T05:32:02;0.80;;;0.80;;
28188;SDS011;15471;51.166;4.470;2022-12-13T05:34:28;0.80;;;0.80;;
28188;SDS011;15471;51.166;4.470;2022-12-13T05:36:54;0.70;;;0.70;;
28188;SDS011;15471;51.166;4.470;2022-12-13T05:39:20;0.70;;;0.70;;
28188;SDS011;15471;51.166;4.470;2022-12-13T05:41:46;0.80;;;0.80;;
28188;SDS011;15471;51.166;4.470;2022-12-13T05:44:12;0.73;;;0.73;;
28188;SDS011;15471;51.166;4.470;2022-12-13T05:46:39;0.70;;;0.70;;
28188;SDS011;15471;51.166;4.470;2022-12-13T05:49:05;0.80;;;0.80;;
28188;SDS011;15471;51.166;4.470;2022-12-13T05:51:31;0.77;;;0.77;;
28188;SDS011;15471;51.166;4.470;2022-12-13T05:53:57;0.70;;;0.70;;
28188;SDS011;15471;51.166;4.470;2022-12-13T05:56:23;0.80;;;0.80;;
28188;SDS011;15471;51.166;4.470;2022-12-13T05:58:49;0.80;;;0.80;;
28188;SDS011;15471;51.166;4.470;2022-12-13T06:01:15;0.70;;;0.70;;
28188;SDS011;15471;51.166;4.470;2022-12-13T06:03:41;0.80;;;0.80;;
28188;SDS011;15471;51.166;4.470;2022-12-13T06:06:08;0.70;;;0.70;;
28188;SDS011;15471;51.166;4.470;2022-12-13T06:08:35;0.80;;;0.80;;
28188;SDS011;15471;51.166;4.470;2022-12-13T06:11:01;0.80;;;0.80;;
28188;SDS011;15471;51.166;4.470;2022-12-13T06:13:28;0.80;;;0.80;;
28188;SDS011;15471;51.166;4.470;2022-12-13T06:15:54;0.80;;;0.80;;
28188;SDS011;15471;51.166;4.470;2022-12-13T06:18:25;0.80;;;0.80;;
28188;SDS011;15471;51.166;4.470;2022-12-13T06:20:57;0.70;;;0.70;;
28188;SDS011;15471;51.166;4.470;2022-12-13T06:23:28;0.80;;;0.80;;
28188;SDS011;15471;51.166;4.470;2022-12-13T06:25:55;0.80;;;0.80;;
28188;SDS011;15471;51.166;4.470;2022-12-13T06:28:21;0.80;;;0.80;;
28188;SDS011;15471;51.166;4.470;2022-12-13T06:30:47;0.80;;;0.80;;
28188;SDS011;15471;51.166;4.470;2022-12-13T06:33:17;0.70;;;0.70;;
28188;SDS011;15471;51.166;4.470;2022-12-13T06:35:45;0.80;;;0.80;;
28188;SDS011;15471;51.166;4.470;2022-12-13T06:38:12;0.80;;;0.80;;
28188;SDS011;15471;51.166;4.470;2022-12-13T06:40:38;0.80;;;0.80;;
28188;SDS011;15471;51.166;4.470;2022-12-13T06:43:04;0.75;;;0.75;;
28188;SDS011;15471;51.166;4.470;2022-12-13T06:45:30;0.80;;;0.80;;
28188;SDS011;15471;51.166;4.470;2022-12-13T06:47:57;0.80;;;0.80;;
28188;SDS011;15471;51.166;4.470;2022-12-13T06:50:23;0.80;;;0.80;;
28188;SDS011;15471;51.166;4.470;2022-12-13T06:52:49;0.80;;;0.80;;
28188;SDS011;15471;51.166;4.470;2022-12-13T06:55:15;0.80;;;0.80;;
28188;SDS011;15471;51.166;4.470;2022-12-13T06:57:41;0.90;;;0.90;;
28188;SDS011;15471;51.166;4.470;2022-12-13T07:00:08;0.80;;;0.80;;
28188;SDS011;15471;51.166;4.470;2022-12-13T07:02:35;0.80;;;0.80;;
28188;SDS011;15471;51.166;4.470;2022-12-13T07:05:02;0.80;;;0.80;;
28188;SDS011;15471;51.166;4.470;2022-12-13T07:07:27;0.80;;;0.80;;
28188;SDS011;15471;51.166;4.470;2022-12-13T07:09:53;0.80;;;0.80;;
28188;SDS011;15471;51.166;4.470;2022-12-13T07:12:19;0.80;;;0.80;;
28188;SDS011;15471;51.166;4.470;2022-12-13T07:14:45;0.80;;;0.80;;
28188;SDS011;15471;51.166;4.470;2022-12-13T07:17:11;0.70;;;0.70;;
28188;SDS011;15471;51.166;4.470;2022-12-13T07:19:37;0.70;;;0.70;;
28188;SDS011;15471;51.166;4.470;2022-12-13T07:22:03;0.80;;;0.80;;
28188;SDS011;15471;51.166;4.470;2022-12-13T07:24:33;0.70;;;0.70;;
28188;SDS011;15471;51.166;4.470;2022-12-13T07:26:59;0.80;;;0.80;;
28188;SDS011;15471;51.166;4.470;2022-12-13T07:29:25;0.80;;;0.80;;
28188;SDS011;15471;51.166;4.470;2022-12-13T07:31:50;0.70;;;0.70;;
28188;SDS011;15471;51.166;4.470;2022-12-13T07:34:17;0.80;;;0.80;;
28188;SDS011;15471;51.166;4.470;2022-12-13T07:36:44;0.80;;;0.80;;
28188;SDS011;15471;51.166;4.470;2022-12-13T07:39:10;0.80;;;0.80;;
28188;SDS011;15471;51.166;4.470;2022-12-13T07:41:37;0.80;;;0.80;;
28188;SDS011;15471;51.166;4.470;2022-12-13T07:44:04;0.80;;;0.80;;
28188;SDS011;15471;51.166;4.470;2022-12-13T07:46:30;0.80;;;0.80;;
28188;SDS011;15471;51.166;4.470;2022-12-13T07:48:56;0.80;;;0.80;;
28188;SDS011;15471;51.166;4.470;2022-12-13T07:51:21;0.80;;;0.80;;
28188;SDS011;15471;51.166;4.470;2022-12-13T07:53:47;0.80;;;0.80;;
28188;SDS011;15471;51.166;4.470;2022-12-13T07:56:13;0.80;;;0.80;;
28188;SDS011;15471;51.166;4.470;2022-12-13T07:58:40;0.80;;;0.80;;
28188;SDS011;15471;51.166;4.470;2022-12-13T08:01:07;0.80;;;0.80;;
28188;SDS011;15471;51.166;4.470;2022-12-13T08:03:34;0.70;;;0.70;;
28188;SDS011;15471;51.166;4.470;2022-12-13T08:06:08;0.70;;;0.70;;
28188;SDS011;15471;51.166;4.470;2022-12-13T08:08:35;0.70;;;0.70;;
28188;SDS011;15471;51.166;4.470;2022-12-13T08:11:02;0.70;;;0.70;;
28188;SDS011;15471;51.166;4.470;2022-12-13T08:13:33;0.90;;;0.90;;
28188;SDS011;15471;51.166;4.470;2022-12-13T08:15:59;0.75;;;0.75;;
28188;SDS011;15471;51.166;4.470;2022-12-13T08:18:27;0.70;;;0.70;;
28188;SDS011;15471;51.166;4.470;2022-12-13T08:21:00;0.70;;;0.70;;
28188;SDS011;15471;51.166;4.470;2022-12-13T08:23:28;0.70;;;0.70;;
28188;SDS011;15471;51.166;4.470;2022-12-13T08:25:56;0.70;;;0.70;;
28188;SDS011;15471;51.166;4.470;2022-12-13T08:28:22;0.70;;;0.70;;
28188;SDS011;15471;51.166;4.470;2022-12-13T08:30:48;0.70;;;0.70;;
28188;SDS011;15471;51.166;4.470;2022-12-13T08:33:15;0.70;;;0.70;;
28188;SDS011;15471;51.166;4.470;2022-12-13T08:35:41;0.70;;;0.70;;
28188;SDS011;15471;51.166;4.470;2022-12-13T08:38:07;0.70;;;0.70;;
28188;SDS011;15471;51.166;4.470;2022-12-13T08:40:33;0.70;;;0.70;;
28188;SDS011;15471;51.166;4.470;2022-12-13T08:42:59;0.70;;;0.70;;
28188;SDS011;15471;51.166;4.470;2022-12-13T08:45:25;0.70;;;0.70;;
28188;SDS011;15471;51.166;4.470;2022-12-13T08:47:51;0.70;;;0.70;;
28188;SDS011;15471;51.166;4.470;2022-12-13T08:50:18;0.70;;;0.70;;
28188;SDS011;15471;51.166;4.470;2022-12-13T08:52:44;0.70;;;0.70;;
28188;SDS011;15471;51.166;4.470;2022-12-13T08:55:10;0.70;;;0.70;;
28188;SDS011;15471;51.166;4.470;2022-12-13T08:57:38;0.70;;;0.70;;
28188;SDS011;15471;51.166;4.470;2022-12-13T09:00:05;0.65;;;0.65;;
28188;SDS011;15471;51.166;4.470;2022-12-13T09:02:33;0.70;;;0.70;;
28188;SDS011;15471;51.166;4.470;2022-12-13T09:04:59;0.70;;;0.70;;
28188;SDS011;15471;51.166;4.470;2022-12-13T09:07:39;0.60;;;0.60;;
28188;SDS011;15471;51.166;4.470;2022-12-13T09:10:06;0.60;;;0.60;;
28188;SDS011;15471;51.166;4.470;2022-12-13T09:12:41;0.60;;;0.60;;
28188;SDS011;15471;51.166;4.470;2022-12-13T09:15:07;0.60;;;0.60;;
28188;SDS011;15471;51.166;4.470;2022-12-13T09:17:34;0.60;;;0.60;;
28188;SDS011;15471;51.166;4.470;2022-12-13T09:19:59;0.60;;;0.60;;
28188;SDS011;15471;51.166;4.470;2022-12-13T09:22:26;0.60;;;0.60;;
28188;SDS011;15471;51.166;4.470;2022-12-13T09:24:52;0.60;;;0.60;;
28188;SDS011;15471;51.166;4.470;2022-12-13T09:27:17;0.60;;;0.60;;
28188;SDS011;15471;51.166;4.470;2022-12-13T09:29:44;0.50;;;0.50;;
28188;SDS011;15471;51.166;4.470;2022-12-13T09:32:11;0.50;;;0.50;;
28188;SDS011;15471;51.166;4.470;2022-12-13T09:34:37;0.47;;;0.47;;
28188;SDS011;15471;51.166;4.470;2022-12-13T09:37:04;0.40;;;0.40;;
28188;SDS011;15471;51.166;4.470;2022-12-13T09:39:30;0.45;;;0.45;;
28188;SDS011;15471;51.166;4.470;2022-12-13T09:41:56;0.50;;;0.50;;
28188;SDS011;15471;51.166;4.470;2022-12-13T09:44:25;0.50;;;0.50;;
28188;SDS011;15471;51.166;4.470;2022-12-13T09:46:54;0.50;;;0.50;;
28188;SDS011;15471;51.166;4.470;2022-12-13T09:49:35;0.50;;;0.50;;
28188;SDS011;15471;51.166;4.470;2022-12-13T09:52:05;0.50;;;0.50;;
28188;SDS011;15471;51.166;4.470;2022-12-13T09:54:37;0.50;;;0.50;;
28188;SDS011;15471;51.166;4.470;2022-12-13T09:57:03;0.50;;;0.50;;
28188;SDS011;15471;51.166;4.470;2022-12-13T09:59:34;0.55;;;0.55;;
28188;SDS011;15471;51.166;4.470;2022-12-13T10:04:56;0.50;;;0.50;;
28188;SDS011;15471;51.166;4.470;2022-12-13T10:07:43;0.50;;;0.50;;
28188;SDS011;15471;51.166;4.470;2022-12-13T10:10:10;0.50;;;0.50;;
28188;SDS011;15471;51.166;4.470;2022-12-13T10:12:38;0.50;;;0.50;;
28188;SDS011;15471;51.166;4.470;2022-12-13T10:15:10;0.43;;;0.43;;
28188;SDS011;15471;51.166;4.470;2022-12-13T10:17:40;0.40;;;0.40;;
28188;SDS011;15471;51.166;4.470;2022-12-13T10:20:06;0.45;;;0.45;;
28188;SDS011;15471;51.166;4.470;2022-12-13T10:22:40;0.40;;;0.40;;
28188;SDS011;15471;51.166;4.470;2022-12-13T10:25:06;0.40;;;0.40;;
28188;SDS011;15471;51.166;4.470;2022-12-13T10:27:35;0.40;;;0.40;;
28188;SDS011;15471;51.166;4.470;2022-12-13T10:30:08;0.40;;;0.40;;
28188;SDS011;15471;51.166;4.470;2022-12-13T10:32:44;0.40;;;0.40;;
28188;SDS011;15471;51.166;4.470;2022-12-13T10:35:27;0.40;;;0.40;;
28188;SDS011;15471;51.166;4.470;2022-12-13T10:38:25;0.30;;;0.30;;
28188;SDS011;15471;51.166;4.470;2022-12-13T10:40:58;0.35;;;0.35;;
28188;SDS011;15471;51.166;4.470;2022-12-13T10:43:24;0.30;;;0.30;;
28188;SDS011;15471;51.166;4.470;2022-12-13T10:48:21;0.30;;;0.30;;
28188;SDS011;15471;51.166;4.470;2022-12-13T10:50:56;0.30;;;0.30;;
28188;SDS011;15471;51.166;4.470;2022-12-13T10:53:29;0.30;;;0.30;;
28188;SDS011;15471;51.166;4.470;2022-12-13T10:56:00;0.40;;;0.40;;
28188;SDS011;15471;51.166;4.470;2022-12-13T10:58:34;0.38;;;0.38;;
28188;SDS011;15471;51.166;4.470;2022-12-13T11:01:08;0.38;;;0.38;;
28188;SDS011;15471;51.166;4.470;2022-12-13T11:04:03;0.30;;;0.30;;
28188;SDS011;15471;51.166;4.470;2022-12-13T11:06:44;0.30;;;0.30;;
28188;SDS011;15471;51.166;4.470;2022-12-13T11:09:30;0.30;;;0.30;;
28188;SDS011;15471;51.166;4.470;2022-12-13T11:11:59;0.30;;;0.30;;
28188;SDS011;15471;51.166;4.470;2022-12-13T11:14:27;0.30;;;0.30;;
28188;SDS011;15471;51.166;4.470;2022-12-13T11:17:06;0.30;;;0.30;;
28188;SDS011;15471;51.166;4.470;2022-12-13T11:22:05;0.30;;;0.30;;
28188;SDS011;15471;51.166;4.470;2022-12-13T11:24:35;0.30;;;0.30;;
28188;SDS011;15471;51.166;4.470;2022-12-13T11:30:41;0.30;;;0.30;;
28188;SDS011;15471;51.166;4.470;2022-12-13T11:35:37;0.30;;;0.30;;
28188;SDS011;15471;51.166;4.470;2022-12-13T11:41:24;0.30;;;0.30;;
28188;SDS011;15471;51.166;4.470;2022-12-13T11:43:55;0.30;;;0.30;;
28188;SDS011;15471;51.166;4.470;2022-12-13T11:46:44;0.30;;;0.30;;
28188;SDS011;15471;51.166;4.470;2022-12-13T11:49:15;0.30;;;0.30;;
28188;SDS011;15471;51.166;4.470;2022-12-13T11:51:45;0.30;;;0.30;;
28188;SDS011;15471;51.166;4.470;2022-12-13T11:56:57;0.30;;;0.30;;
28188;SDS011;15471;51.166;4.470;2022-12-13T11:59:39;0.30;;;0.30;;
28188;SDS011;15471;51.166;4.470;2022-12-13T12:04:55;0.30;;;0.30;;
28188;SDS011;15471;51.166;4.470;2022-12-13T12:12:38;0.30;;;0.30;;
28188;SDS011;15471;51.166;4.470;2022-12-13T12:15:19;0.30;;;0.30;;
28188;SDS011;15471;51.166;4.470;2022-12-13T12:17:49;0.30;;;0.30;;
28188;SDS011;15471;51.166;4.470;2022-12-13T12:20:18;0.30;;;0.30;;
28188;SDS011;15471;51.166;4.470;2022-12-13T12:22:55;0.30;;;0.30;;
28188;SDS011;15471;51.166;4.470;2022-12-13T12:25:51;0.20;;;0.20;;
28188;SDS011;15471;51.166;4.470;2022-12-13T12:36:52;0.30;;;0.30;;
28188;SDS011;15471;51.166;4.470;2022-12-13T12:39:53;0.30;;;0.30;;
28188;SDS011;15471;51.166;4.470;2022-12-13T12:45:09;0.30;;;0.30;;
28188;SDS011;15471;51.166;4.470;2022-12-13T13:04:09;0.30;;;0.30;;
28188;SDS011;15471;51.166;4.470;2022-12-13T13:06:40;0.30;;;0.30;;
28188;SDS011;15471;51.166;4.470;2022-12-13T13:09:10;0.30;;;0.30;;
28188;SDS011;15471;51.166;4.470;2022-12-13T13:11:40;0.30;;;0.30;;
28188;SDS011;15471;51.166;4.470;2022-12-13T13:19:45;0.30;;;0.30;;
28188;SDS011;15471;51.166;4.470;2022-12-13T13:22:26;0.30;;;0.30;;
28188;SDS011;15471;51.166;4.470;2022-12-13T13:27:39;0.25;;;0.25;;
28188;SDS011;15471;51.166;4.470;2022-12-13T13:30:14;0.30;;;0.30;;
28188;SDS011;15471;51.166;4.470;2022-12-13T13:32:43;0.30;;;0.30;;
28188;SDS011;15471;51.166;4.470;2022-12-13T13:40:48;0.30;;;0.30;;
28188;SDS011;15471;51.166;4.470;2022-12-13T13:43:15;0.30;;;0.30;;
28188;SDS011;15471;51.166;4.470;2022-12-13T14:22:39;0.30;;;0.30;;
28188;SDS011;15471;51.166;4.470;2022-12-13T14:25:25;0.40;;;0.40;;
28188;SDS011;15471;51.166;4.470;2022-12-13T14:30:47;0.30;;;0.30;;
28188;SDS011;15471;51.166;4.470;2022-12-13T14:33:20;0.30;;;0.30;;
28188;SDS011;15471;51.166;4.470;2022-12-13T14:35:57;0.30;;;0.30;;
28188;SDS011;15471;51.166;4.470;2022-12-13T14:38:25;0.40;;;0.40;;
28188;SDS011;15471;51.166;4.470;2022-12-13T14:40:53;0.40;;;0.40;;
28188;SDS011;15471;51.166;4.470;2022-12-13T14:43:25;0.40;;;0.40;;
28188;SDS011;15471;51.166;4.470;2022-12-13T14:46:03;0.40;;;0.40;;
28188;SDS011;15471;51.166;4.470;2022-12-13T14:48:34;0.40;;;0.40;;
28188;SDS011;15471;51.166;4.470;2022-12-13T14:51:17;0.40;;;0.40;;
28188;SDS011;15471;51.166;4.470;2022-12-13T14:53:49;0.43;;;0.43;;
28188;SDS011;15471;51.166;4.470;2022-12-13T14:56:17;0.40;;;0.40;;
28188;SDS011;15471;51.166;4.470;2022-12-13T14:58:52;0.40;;;0.40;;
28188;SDS011;15471;51.166;4.470;2022-12-13T15:01:24;0.40;;;0.40;;
28188;SDS011;15471;51.166;4.470;2022-12-13T15:07:03;0.40;;;0.40;;
28188;SDS011;15471;51.166;4.470;2022-12-13T15:09:39;0.40;;;0.40;;
28188;SDS011;15471;51.166;4.470;2022-12-13T15:12:11;0.40;;;0.40;;
28188;SDS011;15471;51.166;4.470;2022-12-13T15:14:41;0.40;;;0.40;;
28188;SDS011;15471;51.166;4.470;2022-12-13T15:17:26;0.40;;;0.40;;
28188;SDS011;15471;51.166;4.470;2022-12-13T15:19:55;0.38;;;0.38;;
28188;SDS011;15471;51.166;4.470;2022-12-13T15:22:22;0.40;;;0.40;;
28188;SDS011;15471;51.166;4.470;2022-12-13T15:24:49;0.40;;;0.40;;
28188;SDS011;15471;51.166;4.470;2022-12-13T15:27:23;0.40;;;0.40;;
28188;SDS011;15471;51.166;4.470;2022-12-13T15:29:50;0.40;;;0.40;;
28188;SDS011;15471;51.166;4.470;2022-12-13T15:32:18;0.40;;;0.40;;
28188;SDS011;15471;51.166;4.470;2022-12-13T15:34:47;0.40;;;0.40;;
28188;SDS011;15471;51.166;4.470;2022-12-13T15:37:26;0.50;;;0.50;;
28188;SDS011;15471;51.166;4.470;2022-12-13T15:39:59;0.40;;;0.40;;
28188;SDS011;15471;51.166;4.470;2022-12-13T15:42:32;0.43;;;0.43;;
28188;SDS011;15471;51.166;4.470;2022-12-13T15:45:02;0.40;;;0.40;;
28188;SDS011;15471;51.166;4.470;2022-12-13T15:47:43;0.40;;;0.40;;
28188;SDS011;15471;51.166;4.470;2022-12-13T15:50:33;0.50;;;0.50;;
28188;SDS011;15471;51.166;4.470;2022-12-13T15:53:03;0.40;;;0.40;;
28188;SDS011;15471;51.166;4.470;2022-12-13T15:55:32;0.40;;;0.40;;
28188;SDS011;15471;51.166;4.470;2022-12-13T15:57:59;0.50;;;0.50;;
28188;SDS011;15471;51.166;4.470;2022-12-13T16:00:29;0.50;;;0.50;;
28188;SDS011;15471;51.166;4.470;2022-12-13T16:03:06;0.40;;;0.40;;
28188;SDS011;15471;51.166;4.470;2022-12-13T16:05:45;0.50;;;0.50;;
28188;SDS011;15471;51.166;4.470;2022-12-13T16:08:26;0.40;;;0.40;;
28188;SDS011;15471;51.166;4.470;2022-12-13T16:10:56;0.40;;;0.40;;
28188;SDS011;15471;51.166;4.470;2022-12-13T16:13:32;0.40;;;0.40;;
28188;SDS011;15471;51.166;4.470;2022-12-13T16:18:59;0.40;;;0.40;;
28188;SDS011;15471;51.166;4.470;2022-12-13T16:21:25;0.40;;;0.40;;
28188;SDS011;15471;51.166;4.470;2022-12-13T16:23:53;0.40;;;0.40;;
28188;SDS011;15471;51.166;4.470;2022-12-13T16:26:20;0.50;;;0.50;;
28188;SDS011;15471;51.166;4.470;2022-12-13T16:28:47;0.50;;;0.50;;
28188;SDS011;15471;51.166;4.470;2022-12-13T16:33:45;0.50;;;0.50;;
28188;SDS011;15471;51.166;4.470;2022-12-13T16:36:10;0.40;;;0.40;;
28188;SDS011;15471;51.166;4.470;2022-12-13T16:38:36;0.40;;;0.40;;
28188;SDS011;15471;51.166;4.470;2022-12-13T16:41:03;0.47;;;0.47;;
28188;SDS011;15471;51.166;4.470;2022-12-13T16:43:30;0.40;;;0.40;;
28188;SDS011;15471;51.166;4.470;2022-12-13T16:45:58;0.40;;;0.40;;
28188;SDS011;15471;51.166;4.470;2022-12-13T16:48:27;0.40;;;0.40;;
28188;SDS011;15471;51.166;4.470;2022-12-13T16:50:53;0.50;;;0.50;;
28188;SDS011;15471;51.166;4.470;2022-12-13T16:53:19;0.50;;;0.50;;
28188;SDS011;15471;51.166;4.470;2022-12-13T16:55:45;0.50;;;0.50;;
28188;SDS011;15471;51.166;4.470;2022-12-13T16:58:14;0.40;;;0.40;;
28188;SDS011;15471;51.166;4.470;2022-12-13T17:00:42;0.50;;;0.50;;
28188;SDS011;15471;51.166;4.470;2022-12-13T17:03:09;0.45;;;0.45;;
28188;SDS011;15471;51.166;4.470;2022-12-13T17:05:38;0.40;;;0.40;;
28188;SDS011;15471;51.166;4.470;2022-12-13T17:08:05;0.40;;;0.40;;
28188;SDS011;15471;51.166;4.470;2022-12-13T17:10:31;0.40;;;0.40;;
28188;SDS011;15471;51.166;4.470;2022-12-13T17:12:57;0.40;;;0.40;;
28188;SDS011;15471;51.166;4.470;2022-12-13T17:15:26;0.40;;;0.40;;
28188;SDS011;15471;51.166;4.470;2022-12-13T17:17:52;0.40;;;0.40;;
28188;SDS011;15471;51.166;4.470;2022-12-13T17:20:19;0.40;;;0.40;;